KBBD/BBD METAR and TAF weather

Enter ICAO airport designator
Station Type Date Time Source
KBBD METAR 2019/12/11 17:35 UTC NOAA

KBBD 111735Z AUTO 16007KT 150V210 10SM OVC007 05/03 A3050 RMK AO2


Station Type Date Time Source
KBBD Decoded METAR 2019/12/11 17:35 UTC NOAA

Brady, Curtis Field Airport, TX, United States (KBBD) 31-10-45N 099-19-26W
Dec 11, 2019 - 12:35 PM EST / 2019.12.11 1735 UTC
Wind: from the SSE (160 degrees) at 8 MPH (7 KT) (direction variable):0
Visibility: 10 mile(s):0
Sky conditions: overcast
Temperature: 41 F (5 C)
Dew Point: 37 F (3 C)
Relative Humidity: 86%
Pressure (altimeter): 30.5 in. Hg (1032 hPa)
ob: KBBD 111735Z AUTO 16007KT 150V210 10SM OVC007 05/03 A3050 RMK AO2
cycle: 17

Station Type Date Time Source
KBBD TAF 2019/12/11 18:36 UTC NOAA

TAF KBBD 111735Z 1118/1218 15005KT P6SM OVC006
FM112100 13005KT P6SM SCT035
FM112300 14004KT P6SM FEW250
FM121300 17005KT 5SM BR SCT015

Example: see airport list